createdAt,value
2023-04-16T00:01:37.117Z,101003.41
2023-04-16T00:04:04.516Z,101004.72
2023-04-16T00:06:31.982Z,101009.66
2023-04-16T00:08:58.697Z,101004.56
2023-04-16T00:11:25.349Z,101000.97
2023-04-16T00:13:51.965Z,101000.31
2023-04-16T00:16:18.645Z,101001.94
2023-04-16T00:18:45.449Z,101008.28
2023-04-16T00:21:12.364Z,101007.47
2023-04-16T00:23:39.051Z,101019.75
2023-04-16T00:26:06.417Z,101008.84
2023-04-16T00:28:33.165Z,101020.88
2023-04-16T00:31:01.121Z,101008.97
2023-04-16T00:33:27.737Z,101016.81
2023-04-16T00:35:54.339Z,101010.59
2023-04-16T00:38:21.187Z,101022.28
2023-04-16T00:40:47.780Z,101018.00
2023-04-16T00:43:22.140Z,101012.22
2023-04-16T00:45:48.954Z,101021.81
2023-04-16T00:48:16.054Z,101019.03
2023-04-16T00:50:42.697Z,101020.88
2023-04-16T00:53:10.802Z,101025.63
2023-04-16T00:55:39.749Z,101025.50
2023-04-16T00:58:06.807Z,101027.94
2023-04-16T01:00:33.718Z,101029.00
2023-04-16T01:03:00.890Z,101026.44
2023-04-16T01:05:27.469Z,101022.84
2023-04-16T01:07:59.593Z,101025.97
2023-04-16T01:10:27.423Z,101021.81
2023-04-16T01:12:54.183Z,101027.38
2023-04-16T01:15:20.856Z,101027.38
2023-04-16T01:17:48.214Z,101032.69
2023-04-16T01:20:14.842Z,101029.34
2023-04-16T01:22:42.620Z,101024.81
2023-04-16T01:25:14.061Z,101026.31
2023-04-16T01:27:40.628Z,101031.88
2023-04-16T01:30:07.928Z,101034.28
2023-04-16T01:32:35.416Z,101031.72
2023-04-16T01:35:03.779Z,101039.03
2023-04-16T01:37:30.893Z,101039.72
2023-04-16T01:39:57.418Z,101050.84
2023-04-16T01:42:24.310Z,101046.34
2023-04-16T01:44:51.123Z,101053.28
2023-04-16T01:47:18.210Z,101051.66
2023-04-16T01:49:45.560Z,101050.94
2023-04-16T01:52:12.854Z,101051.75
2023-04-16T01:54:39.425Z,101049.91
2023-04-16T01:57:05.993Z,101052.34
2023-04-16T01:59:33.056Z,101049.47
2023-04-16T02:02:12.978Z,101057.69
2023-04-16T02:04:41.235Z,101050.94
2023-04-16T02:07:08.950Z,101049.09
2023-04-16T02:09:36.499Z,101051.66
2023-04-16T02:12:03.847Z,101047.56
2023-04-16T02:14:31.203Z,101048.06
2023-04-16T02:16:57.957Z,101047.72
2023-04-16T02:19:26.781Z,101047.25
2023-04-16T02:21:54.024Z,101046.09
2023-04-16T02:24:20.923Z,101047.25
2023-04-16T02:26:47.982Z,101045.06
2023-04-16T02:29:14.845Z,101040.66
2023-04-16T02:31:41.436Z,101045.41
2023-04-16T02:34:08.009Z,101041.25
2023-04-16T02:36:39.025Z,101049.56
2023-04-16T02:39:05.605Z,101042.94
2023-04-16T02:41:32.257Z,101042.00
2023-04-16T02:44:01.281Z,101048.16
2023-04-16T02:46:28.002Z,101044.09
2023-04-16T02:48:54.673Z,101039.94
2023-04-16T02:51:21.361Z,101035.88
2023-04-16T02:53:47.986Z,101044.66
2023-04-16T02:56:14.616Z,101050.44
2023-04-16T02:58:41.410Z,101042.50
2023-04-16T03:01:08.172Z,101047.56
2023-04-16T03:03:35.504Z,101041.78
2023-04-16T03:06:02.102Z,101045.59
2023-04-16T03:08:28.850Z,101037.28
2023-04-16T03:10:55.560Z,101040.72
2023-04-16T03:13:22.327Z,101039.03
2023-04-16T03:15:49.945Z,101039.34
2023-04-16T03:18:16.864Z,101044.44
2023-04-16T03:20:43.616Z,101040.44
2023-04-16T03:23:10.791Z,101047.00
2023-04-16T03:25:40.476Z,101042.28
2023-04-16T03:28:07.325Z,101045.28
2023-04-16T03:30:35.383Z,101040.97
2023-04-16T03:33:02.365Z,101047.22
2023-04-16T03:35:29.009Z,101040.97
2023-04-16T03:37:55.533Z,101050.84
2023-04-16T03:40:22.330Z,101049.78
2023-04-16T03:42:49.446Z,101050.59
2023-04-16T03:45:16.489Z,101051.59
2023-04-16T03:47:43.167Z,101044.91
2023-04-16T03:50:11.483Z,101062.25
2023-04-16T03:52:38.662Z,101053.81
2023-04-16T03:55:06.374Z,101050.72
2023-04-16T03:57:33.393Z,101055.91
2023-04-16T03:59:59.916Z,101062.38
2023-04-16T04:02:27.318Z,101064.81
2023-04-16T04:04:54.065Z,101059.16
2023-04-16T04:07:22.538Z,101066.78
2023-04-16T04:09:49.143Z,101068.03
2023-04-16T04:12:15.833Z,101063.88
2023-04-16T04:14:42.273Z,101067.59
2023-04-16T04:17:09.676Z,101073.59
2023-04-16T04:19:36.877Z,101071.38
2023-04-16T04:22:04.657Z,101067.09
2023-04-16T04:24:31.493Z,101072.88
2023-04-16T04:26:58.145Z,101083.91
2023-04-16T04:29:24.687Z,101078.00
2023-04-16T04:31:51.481Z,101078.22
2023-04-16T04:34:18.849Z,101079.03
2023-04-16T04:36:45.533Z,101084.69
2023-04-16T04:39:12.054Z,101090.13
2023-04-16T04:41:38.888Z,101091.22
2023-04-16T04:44:05.678Z,101090.72
2023-04-16T04:46:32.175Z,101087.47
2023-04-16T04:48:59.128Z,101095.13
2023-04-16T04:51:27.006Z,101078.56
2023-04-16T04:53:53.820Z,101092.25
2023-04-16T04:56:20.783Z,101091.88
2023-04-16T04:58:47.506Z,101099.88
2023-04-16T05:01:13.991Z,101096.63
2023-04-16T05:03:40.757Z,101091.66
2023-04-16T05:06:07.955Z,101100.09
2023-04-16T05:08:34.753Z,101099.25
2023-04-16T05:11:02.231Z,101102.16
2023-04-16T05:13:28.827Z,101110.28
2023-04-16T05:15:55.347Z,101109.72
2023-04-16T05:18:22.175Z,101110.66
2023-04-16T05:20:48.736Z,101110.78
2023-04-16T05:23:15.669Z,101109.03
2023-04-16T05:25:42.164Z,101101.19
2023-04-16T05:28:09.981Z,101102.34
2023-04-16T05:30:36.528Z,101107.34
2023-04-16T05:33:04.060Z,101109.41
2023-04-16T05:35:30.707Z,101121.00
2023-04-16T05:37:57.355Z,101115.19
2023-04-16T05:40:24.055Z,101129.66
2023-04-16T05:42:51.286Z,101130.00
2023-04-16T05:45:18.034Z,101131.63
2023-04-16T05:47:44.812Z,101135.72
2023-04-16T05:50:11.353Z,101142.63
2023-04-16T05:52:38.779Z,101144.09
2023-04-16T05:55:06.220Z,101153.19
2023-04-16T05:57:33.823Z,101138.81
2023-04-16T06:00:01.815Z,101131.50
2023-04-16T06:02:30.466Z,101138.00
2023-04-16T06:04:58.049Z,101144.50
2023-04-16T06:07:24.515Z,101140.91
2023-04-16T06:09:51.415Z,101131.19
2023-04-16T06:12:18.056Z,101137.22
2023-04-16T06:14:44.744Z,101136.66
2023-04-16T06:17:12.140Z,101140.59
2023-04-16T06:19:38.942Z,101143.72
2023-04-16T06:22:06.458Z,101148.13
2023-04-16T06:24:34.009Z,101149.75
2023-04-16T06:27:01.336Z,101148.25
2023-04-16T06:29:36.963Z,101149.53
2023-04-16T06:32:07.509Z,101154.94
2023-04-16T06:34:34.320Z,101163.97
2023-04-16T06:37:01.196Z,101167.22
2023-04-16T06:39:28.822Z,101165.59
2023-04-16T06:41:55.936Z,101169.53
2023-04-16T06:44:22.550Z,101164.09
2023-04-16T06:46:50.696Z,101171.63
2023-04-16T06:49:17.346Z,101172.53
2023-04-16T06:51:44.038Z,101171.19
2023-04-16T06:54:10.677Z,101168.75
2023-04-16T06:56:37.411Z,101173.03
2023-04-16T06:59:04.668Z,101170.34
2023-04-16T07:01:31.526Z,101177.09
2023-04-16T07:03:59.865Z,101183.09
2023-04-16T07:06:27.074Z,101178.25
2023-04-16T07:08:54.090Z,101178.84
2023-04-16T07:11:21.042Z,101178.84
2023-04-16T07:13:47.749Z,101180.44
2023-04-16T07:16:14.280Z,101184.50
2023-04-16T07:18:41.160Z,101190.19
2023-04-16T07:21:07.605Z,101184.75
2023-04-16T07:23:34.295Z,101190.22
2023-04-16T07:26:01.449Z,101187.06
2023-04-16T07:28:28.288Z,101198.06
2023-04-16T07:30:55.522Z,101199.69
2023-04-16T07:33:21.921Z,101189.75
2023-04-16T07:35:48.657Z,101189.25
2023-04-16T07:38:16.257Z,101199.59
2023-04-16T07:40:42.810Z,101199.00
2023-04-16T07:43:10.071Z,101201.31
2023-04-16T07:45:36.662Z,101208.28
2023-04-16T07:48:03.393Z,101205.16
2023-04-16T07:50:30.308Z,101205.28
2023-04-16T07:52:58.089Z,101202.88
2023-04-16T07:55:24.606Z,101206.47
2023-04-16T07:57:52.201Z,101212.47
2023-04-16T08:00:21.904Z,101205.75
2023-04-16T08:02:49.728Z,101209.25
2023-04-16T08:05:16.501Z,101208.78
2023-04-16T08:07:43.570Z,101201.50
2023-04-16T08:10:10.534Z,101206.34
2023-04-16T08:12:37.182Z,101217.84
2023-04-16T08:15:05.250Z,101222.97
2023-04-16T08:17:34.367Z,101219.25
2023-04-16T08:20:01.744Z,101226.69
2023-04-16T08:22:31.369Z,101228.31
2023-04-16T08:24:58.046Z,101232.03
2023-04-16T08:27:24.533Z,101228.06
2023-04-16T08:29:51.640Z,101231.91
2023-04-16T08:32:18.252Z,101244.19
2023-04-16T08:34:45.092Z,101241.88
2023-04-16T08:37:12.909Z,101247.31
2023-04-16T08:39:39.544Z,101246.25
2023-04-16T08:42:12.976Z,101245.00
2023-04-16T08:44:49.018Z,101248.38
2023-04-16T08:47:21.092Z,101250.09
2023-04-16T08:49:47.873Z,101254.38
2023-04-16T08:52:22.032Z,101261.69
2023-04-16T08:54:57.307Z,101266.16
2023-04-16T08:57:30.423Z,101266.66
2023-04-16T08:59:58.252Z,101272.22
2023-04-16T09:02:26.397Z,101269.31
2023-04-16T09:04:53.836Z,101272.91
2023-04-16T09:07:21.873Z,101281.84
2023-04-16T09:09:52.962Z,101288.91
2023-04-16T09:12:25.867Z,101277.78
2023-04-16T09:14:52.559Z,101277.63
2023-04-16T09:17:19.358Z,101283.88
2023-04-16T09:19:46.380Z,101277.63
2023-04-16T09:22:13.229Z,101289.06
2023-04-16T09:24:40.098Z,101290.75
2023-04-16T09:27:09.267Z,101288.69
2023-04-16T09:29:41.100Z,101292.88
2023-04-16T09:32:10.375Z,101298.09
2023-04-16T09:35:00.042Z,101302.16
2023-04-16T09:37:31.443Z,101296.25
2023-04-16T09:40:00.473Z,101298.59
2023-04-16T09:42:29.351Z,101307.38
2023-04-16T09:45:00.318Z,101306.81
2023-04-16T09:47:45.707Z,101305.28
2023-04-16T09:50:18.439Z,101308.56
2023-04-16T09:52:51.086Z,101311.81
2023-04-16T09:55:23.595Z,101318.31
2023-04-16T09:57:58.839Z,101313.41
2023-04-16T10:00:25.684Z,101319.44
2023-04-16T10:03:04.621Z,101319.44
2023-04-16T10:05:32.303Z,101321.66
2023-04-16T10:08:02.606Z,101315.63
2023-04-16T10:10:29.743Z,101318.31
2023-04-16T10:12:56.503Z,101322.91
2023-04-16T10:15:23.306Z,101317.78
2023-04-16T10:17:50.962Z,101317.63
2023-04-16T10:20:18.402Z,101321.78
2023-04-16T10:22:46.194Z,101315.63
2023-04-16T10:25:13.439Z,101322.00
2023-04-16T10:27:40.653Z,101326.72
2023-04-16T10:30:09.397Z,101328.13
2023-04-16T10:32:38.357Z,101326.34
2023-04-16T10:35:05.783Z,101334.69
2023-04-16T10:37:33.119Z,101333.88
2023-04-16T10:39:59.975Z,101330.50
2023-04-16T10:42:27.437Z,101328.78
2023-04-16T10:44:54.134Z,101331.72
2023-04-16T10:47:24.707Z,101328.84
2023-04-16T10:49:51.851Z,101323.53
2023-04-16T10:52:18.848Z,101331.88
2023-04-16T10:54:46.826Z,101333.47
2023-04-16T10:57:18.243Z,101332.47
2023-04-16T10:59:45.880Z,101335.50
2023-04-16T11:02:18.066Z,101330.91
2023-04-16T11:04:48.567Z,101332.16
2023-04-16T11:07:32.739Z,101332.06
2023-04-16T11:10:01.974Z,101333.34
2023-04-16T11:12:56.081Z,101328.47
2023-04-16T11:15:23.350Z,101329.78
2023-04-16T11:17:52.507Z,101334.97
2023-04-16T11:20:20.893Z,101334.19
2023-04-16T11:22:49.618Z,101342.06
2023-04-16T11:25:26.570Z,101332.31
2023-04-16T11:27:54.158Z,101330.59
2023-04-16T11:30:33.195Z,101328.84
2023-04-16T11:33:06.008Z,101329.69
2023-04-16T11:35:32.688Z,101331.72
2023-04-16T11:38:00.080Z,101330.41
2023-04-16T11:40:31.341Z,101331.47
2023-04-16T11:43:13.124Z,101322.59
2023-04-16T11:45:54.524Z,101332.94
2023-04-16T11:48:21.952Z,101334.84
2023-04-16T11:50:56.422Z,101334.97
2023-04-16T11:53:23.757Z,101334.38
2023-04-16T11:55:50.286Z,101335.16
2023-04-16T11:58:17.060Z,101334.16
2023-04-16T12:00:45.050Z,101334.44
2023-04-16T12:03:12.219Z,101332.66
2023-04-16T12:05:41.347Z,101336.28
2023-04-16T12:08:12.751Z,101328.25
2023-04-16T12:10:55.506Z,101347.34
2023-04-16T12:13:22.065Z,101331.56
2023-04-16T12:15:50.505Z,101326.81
2023-04-16T12:18:20.096Z,101338.34
2023-04-16T12:20:48.241Z,101341.22
2023-04-16T12:23:27.758Z,101331.84
2023-04-16T12:25:56.359Z,101340.94
2023-04-16T12:28:34.909Z,101335.06
2023-04-16T12:31:03.108Z,101336.66
2023-04-16T12:33:30.519Z,101341.75
2023-04-16T12:35:57.342Z,101337.06
2023-04-16T12:38:25.499Z,101332.84
2023-04-16T12:40:56.605Z,101338.59
2023-04-16T12:43:24.099Z,101340.13
2023-04-16T12:45:50.919Z,101334.53
2023-04-16T12:48:17.612Z,101340.66
2023-04-16T12:50:44.482Z,101339.63
2023-04-16T12:53:12.122Z,101342.97
2023-04-16T12:55:39.145Z,101337.81
2023-04-16T12:58:05.638Z,101340.78
2023-04-16T13:00:32.761Z,101335.66
2023-04-16T13:03:00.853Z,101336.75
2023-04-16T13:05:27.627Z,101341.81
2023-04-16T13:07:55.492Z,101341.50
2023-04-16T13:10:23.415Z,101340.81
2023-04-16T13:12:49.934Z,101339.16
2023-04-16T13:15:18.465Z,101333.06
2023-04-16T13:17:45.304Z,101327.34
2023-04-16T13:20:12.914Z,101330.50
2023-04-16T13:22:40.759Z,101322.34
2023-04-16T13:25:08.242Z,101326.72
2023-04-16T13:27:35.160Z,101327.19
2023-04-16T13:30:04.584Z,101328.59
2023-04-16T13:32:31.948Z,101321.16
2023-04-16T13:34:58.960Z,101326.16
2023-04-16T13:37:25.523Z,101318.78
2023-04-16T13:39:54.780Z,101328.63
2023-04-16T13:42:22.013Z,101320.59
2023-04-16T13:44:49.302Z,101320.88
2023-04-16T13:47:16.137Z,101320.38
2023-04-16T13:49:43.396Z,101334.72
2023-04-16T13:52:10.081Z,101323.63
2023-04-16T13:54:36.681Z,101325.53
2023-04-16T13:57:03.241Z,101321.72
2023-04-16T13:59:29.675Z,101313.72
2023-04-16T14:01:57.728Z,101317.09
2023-04-16T14:04:24.251Z,101314.22
2023-04-16T14:06:51.261Z,101326.94
2023-04-16T14:09:17.866Z,101315.44
2023-04-16T14:11:45.391Z,101321.38
2023-04-16T14:14:12.288Z,101315.50
2023-04-16T14:16:38.878Z,101326.13
2023-04-16T14:19:05.444Z,101323.00
2023-04-16T14:21:31.986Z,101328.91
2023-04-16T14:23:58.523Z,101320.84
2023-04-16T14:26:25.316Z,101322.59
2023-04-16T14:28:52.041Z,101322.03
2023-04-16T14:31:19.967Z,101325.38
2023-04-16T14:33:47.119Z,101322.19
2023-04-16T14:36:14.923Z,101321.91
2023-04-16T14:38:43.169Z,101315.91
2023-04-16T14:41:12.536Z,101311.06
2023-04-16T14:43:41.186Z,101324.53
2023-04-16T14:46:08.512Z,101316.38
2023-04-16T14:48:35.986Z,101328.13
2023-04-16T14:51:02.937Z,101322.72
2023-04-16T14:53:31.117Z,101323.84
2023-04-16T14:55:58.921Z,101321.09
2023-04-16T14:58:26.282Z,101324.88
2023-04-16T15:00:53.178Z,101324.22
2023-04-16T15:03:21.193Z,101315.50
2023-04-16T15:05:54.747Z,101324.63
2023-04-16T15:08:22.861Z,101322.91
2023-04-16T15:10:50.514Z,101320.25
2023-04-16T15:13:17.720Z,101314.69
2023-04-16T15:15:44.491Z,101315.94
2023-04-16T15:18:11.043Z,101316.94
2023-04-16T15:20:37.655Z,101319.09
2023-04-16T15:23:04.318Z,101320.72
2023-04-16T15:25:30.979Z,101325.50
2023-04-16T15:27:57.862Z,101320.34
2023-04-16T15:30:24.505Z,101320.50
2023-04-16T15:32:52.289Z,101315.00
2023-04-16T15:35:18.964Z,101316.81
2023-04-16T15:37:45.765Z,101317.47
2023-04-16T15:40:13.268Z,101326.31
2023-04-16T15:42:40.274Z,101328.06
2023-04-16T15:45:08.181Z,101327.25
2023-04-16T15:47:36.240Z,101321.88
2023-04-16T15:50:03.322Z,101324.31
2023-04-16T15:52:31.230Z,101320.41
2023-04-16T15:54:57.905Z,101318.03
2023-04-16T15:57:24.578Z,101316.94
2023-04-16T16:00:05.954Z,101317.88
2023-04-16T16:02:34.100Z,101315.06
2023-04-16T16:05:01.120Z,101324.06
2023-04-16T16:07:27.857Z,101315.66
2023-04-16T16:09:56.205Z,101318.47
2023-04-16T16:12:23.036Z,101317.25
2023-04-16T16:14:49.825Z,101314.19
2023-04-16T16:17:20.041Z,101320.03
2023-04-16T16:19:47.212Z,101319.53
2023-04-16T16:22:13.956Z,101321.13
2023-04-16T16:24:41.359Z,101317.25
2023-04-16T16:27:07.989Z,101317.41
2023-04-16T16:29:34.603Z,101319.28
2023-04-16T16:32:02.498Z,101319.66
2023-04-16T16:34:29.596Z,101321.06
2023-04-16T16:36:56.054Z,101321.88
2023-04-16T16:39:25.293Z,101315.25
2023-04-16T16:41:53.998Z,101326.44
2023-04-16T16:44:21.205Z,101318.00
2023-04-16T16:46:48.079Z,101317.94
2023-04-16T16:49:15.896Z,101321.59
2023-04-16T16:51:44.861Z,101318.66
2023-04-16T16:54:11.488Z,101321.84
2023-04-16T16:56:37.941Z,101323.31
2023-04-16T16:59:04.847Z,101315.88
2023-04-16T17:01:32.003Z,101320.06
2023-04-16T17:03:59.165Z,101321.75
2023-04-16T17:06:27.029Z,101324.81
2023-04-16T17:08:53.701Z,101323.13
2023-04-16T17:11:22.410Z,101321.94
2023-04-16T17:13:48.881Z,101328.66
2023-04-16T17:16:17.511Z,101327.47
2023-04-16T17:18:44.624Z,101335.88
2023-04-16T17:21:11.197Z,101336.75
2023-04-16T17:23:39.947Z,101332.59
2023-04-16T17:26:07.540Z,101332.59
2023-04-16T17:28:34.119Z,101332.59
2023-04-16T17:31:01.486Z,101335.63
2023-04-16T17:33:28.226Z,101336.34
2023-04-16T17:35:54.786Z,101344.19
2023-04-16T17:38:21.287Z,101345.28
2023-04-16T17:40:47.934Z,101354.78
2023-04-16T17:43:14.431Z,101359.66
2023-04-16T17:45:41.258Z,101362.00
2023-04-16T17:48:09.518Z,101361.53
2023-04-16T17:50:38.198Z,101361.38
2023-04-16T17:53:06.351Z,101363.09
2023-04-16T17:55:34.899Z,101369.88
2023-04-16T17:58:04.156Z,101370.94
2023-04-16T18:00:31.132Z,101372.84
2023-04-16T18:02:59.635Z,101377.97
2023-04-16T18:05:26.449Z,101372.69
2023-04-16T18:07:53.444Z,101382.94
2023-04-16T18:10:19.934Z,101383.06
2023-04-16T18:12:46.572Z,101387.63
2023-04-16T18:15:13.159Z,101387.09
2023-04-16T18:17:40.337Z,101382.88
2023-04-16T18:20:08.892Z,101389.72
2023-04-16T18:22:36.244Z,101399.16
2023-04-16T18:25:03.066Z,101396.38
2023-04-16T18:27:32.090Z,101403.13
2023-04-16T18:29:58.551Z,101399.31
2023-04-16T18:32:26.010Z,101395.44
2023-04-16T18:34:52.877Z,101398.69
2023-04-16T18:37:19.521Z,101396.16
2023-04-16T18:39:47.348Z,101396.97
2023-04-16T18:42:18.619Z,101407.06
2023-04-16T18:44:51.874Z,101396.88
2023-04-16T18:47:18.612Z,101407.56
2023-04-16T18:49:45.138Z,101412.81
2023-04-16T18:52:12.343Z,101414.22
2023-04-16T18:54:38.882Z,101421.44
2023-04-16T18:57:05.462Z,101416.75
2023-04-16T18:59:32.032Z,101410.88
2023-04-16T19:01:58.732Z,101416.47
2023-04-16T19:04:25.290Z,101409.06
2023-04-16T19:06:52.376Z,101423.00
2023-04-16T19:09:19.846Z,101420.38
2023-04-16T19:11:47.373Z,101413.41
2023-04-16T19:14:14.979Z,101414.91
2023-04-16T19:16:42.264Z,101417.13
2023-04-16T19:19:09.163Z,101419.47
2023-04-16T19:21:36.977Z,101427.94
2023-04-16T19:24:03.867Z,101427.28
2023-04-16T19:26:30.590Z,101431.69
2023-04-16T19:28:57.268Z,101437.13
2023-04-16T19:31:26.008Z,101433.03
2023-04-16T19:33:52.523Z,101432.56
2023-04-16T19:36:19.005Z,101429.31
2023-04-16T19:38:45.879Z,101434.69
2023-04-16T19:41:12.419Z,101430.00
2023-04-16T19:43:39.062Z,101432.50
2023-04-16T19:46:05.908Z,101433.34
2023-04-16T19:48:33.524Z,101437.53
2023-04-16T19:51:05.947Z,101434.16
2023-04-16T19:53:34.281Z,101436.03
2023-04-16T19:56:01.652Z,101431.03
2023-04-16T19:58:28.297Z,101439.50
2023-04-16T20:00:55.562Z,101438.69
2023-04-16T20:03:22.304Z,101442.19
2023-04-16T20:05:49.852Z,101442.09
2023-04-16T20:08:16.502Z,101439.31
2023-04-16T20:10:44.306Z,101439.75
2023-04-16T20:13:12.042Z,101444.25
2023-04-16T20:15:38.619Z,101443.09
2023-04-16T20:18:06.796Z,101446.72
2023-04-16T20:20:37.726Z,101445.22
2023-04-16T20:23:04.408Z,101444.16
2023-04-16T20:25:30.912Z,101440.88
2023-04-16T20:27:57.865Z,101439.63
2023-04-16T20:30:29.032Z,101442.03
2023-04-16T20:32:56.415Z,101441.94
2023-04-16T20:35:22.978Z,101436.28
2023-04-16T20:37:49.753Z,101435.44
2023-04-16T20:40:17.043Z,101433.25
2023-04-16T20:42:46.260Z,101436.38
2023-04-16T20:45:13.050Z,101434.75
2023-04-16T20:47:39.791Z,101434.50
2023-04-16T20:50:07.636Z,101439.16
2023-04-16T20:52:36.358Z,101434.41
2023-04-16T20:55:03.468Z,101434.97
2023-04-16T20:57:31.855Z,101432.88
2023-04-16T20:59:58.601Z,101434.06
2023-04-16T21:02:25.500Z,101429.63
2023-04-16T21:04:52.415Z,101440.78
2023-04-16T21:07:18.925Z,101437.75
2023-04-16T21:09:45.392Z,101433.81
2023-04-16T21:12:12.100Z,101427.28
2023-04-16T21:14:38.626Z,101432.03
2023-04-16T21:17:05.769Z,101436.09
2023-04-16T21:19:32.238Z,101437.28
2023-04-16T21:21:58.729Z,101431.31
2023-04-16T21:24:25.384Z,101430.53
2023-04-16T21:26:52.004Z,101430.88
2023-04-16T21:29:18.493Z,101437.72
2023-04-16T21:31:45.189Z,101431.69
2023-04-16T21:34:12.554Z,101432.13
2023-04-16T21:36:39.495Z,101430.25
2023-04-16T21:39:07.480Z,101424.97
2023-04-16T21:41:34.754Z,101434.47
2023-04-16T21:44:01.239Z,101430.53
2023-04-16T21:46:28.595Z,101435.97
2023-04-16T21:48:55.168Z,101434.56
2023-04-16T21:51:28.813Z,101436.06
2023-04-16T21:53:58.538Z,101428.28
2023-04-16T21:56:25.751Z,101428.53
2023-04-16T21:58:52.364Z,101438.44
2023-04-16T22:01:19.099Z,101439.94
2023-04-16T22:03:50.327Z,101430.88
2023-04-16T22:06:17.784Z,101437.59
2023-04-16T22:08:44.304Z,101430.31
2023-04-16T22:11:11.759Z,101440.75
2023-04-16T22:13:41.844Z,101435.63
2023-04-16T22:16:11.366Z,101436.69
2023-04-16T22:18:38.719Z,101437.38
2023-04-16T22:21:05.506Z,101440.31
2023-04-16T22:23:32.034Z,101437.03
2023-04-16T22:25:58.579Z,101434.00
2023-04-16T22:28:25.843Z,101435.53
2023-04-16T22:30:52.564Z,101438.44
2023-04-16T22:33:19.404Z,101435.63
2023-04-16T22:35:46.516Z,101435.88
2023-04-16T22:38:13.361Z,101440.50
2023-04-16T22:40:39.790Z,101443.19
2023-04-16T22:43:06.727Z,101439.16
2023-04-16T22:45:34.477Z,101443.69
2023-04-16T22:48:00.978Z,101434.25
2023-04-16T22:50:28.420Z,101441.59
2023-04-16T22:52:55.464Z,101428.81
2023-04-16T22:55:21.938Z,101430.78
2023-04-16T22:57:48.508Z,101432.19
2023-04-16T23:00:16.542Z,101432.44
2023-04-16T23:02:43.789Z,101428.16
2023-04-16T23:05:10.882Z,101439.31
2023-04-16T23:07:37.671Z,101432.47
2023-04-16T23:10:04.724Z,101438.28
2023-04-16T23:12:32.058Z,101434.91
2023-04-16T23:15:00.407Z,101435.25
2023-04-16T23:17:27.948Z,101437.13
2023-04-16T23:19:54.749Z,101437.34
2023-04-16T23:22:21.504Z,101435.72
2023-04-16T23:24:47.954Z,101433.28
2023-04-16T23:27:14.425Z,101446.03
2023-04-16T23:29:40.983Z,101440.03
2023-04-16T23:32:07.755Z,101432.13
2023-04-16T23:34:34.166Z,101436.19
2023-04-16T23:37:00.717Z,101435.81
2023-04-16T23:39:27.394Z,101444.41
2023-04-16T23:41:54.062Z,101435.81
2023-04-16T23:44:20.484Z,101435.00
2023-04-16T23:46:47.005Z,101442.22
2023-04-16T23:49:13.974Z,101436.66
2023-04-16T23:51:40.850Z,101429.19
2023-04-16T23:54:08.353Z,101432.00
2023-04-16T23:56:35.460Z,101432.00
2023-04-16T23:59:02.029Z,101431.19
